createdAt,value
2023-02-27T06:39:50.830Z,86.35
2023-02-27T06:40:50.820Z,97.22
2023-02-27T06:41:50.856Z,105.64
2023-02-27T06:42:50.801Z,116.29
2023-02-27T06:43:50.797Z,125.36
2023-02-27T06:44:50.791Z,138.29
2023-02-27T06:45:50.792Z,146.87
2023-02-27T06:46:50.740Z,162.07
2023-02-27T06:47:50.734Z,174.35
2023-02-27T06:48:50.744Z,190.83
2023-02-27T06:49:50.706Z,195.99
2023-02-27T06:50:50.686Z,200.89
2023-02-27T06:51:50.670Z,201.01
2023-02-27T06:52:50.655Z,207.63
2023-02-27T06:53:50.617Z,221.16
2023-02-27T06:54:50.604Z,235.09
2023-02-27T06:55:50.586Z,243.26
2023-02-27T06:56:50.582Z,250.00
2023-02-27T06:57:50.562Z,250.00
2023-02-27T06:58:50.542Z,249.17
2023-02-27T06:59:50.511Z,250.00
2023-02-27T07:00:50.492Z,250.00
2023-02-27T07:01:50.474Z,250.00
2023-02-27T07:02:50.451Z,250.00
2023-02-27T07:03:50.456Z,249.47
2023-02-27T07:04:50.449Z,249.28
2023-02-27T07:05:50.394Z,250.00
2023-02-27T07:07:34.985Z,248.48
2023-02-27T07:07:51.351Z,248.63
2023-02-27T07:09:00.902Z,248.90
2023-02-27T07:09:51.312Z,249.29
2023-02-27T07:10:50.424Z,249.50
2023-02-27T07:11:50.269Z,253.03
2023-02-27T07:12:50.273Z,259.96
2023-02-27T07:13:50.227Z,270.07
2023-02-27T07:14:50.211Z,285.14
2023-02-27T07:15:50.186Z,271.96
2023-02-27T07:16:50.162Z,251.83
2023-02-27T07:17:50.138Z,250.00
2023-02-27T07:18:50.110Z,249.42
2023-02-27T07:19:50.095Z,249.05
2023-02-27T07:20:50.064Z,248.74
2023-02-27T07:21:50.040Z,249.52
2023-02-27T07:22:50.031Z,250.00
2023-02-27T07:23:49.970Z,249.73
2023-02-27T07:24:49.936Z,249.89
2023-02-27T07:25:49.905Z,250.00
2023-02-27T07:26:49.884Z,249.50
2023-02-27T07:27:49.885Z,249.34
2023-02-27T07:28:49.844Z,248.32
2023-02-27T07:29:49.815Z,246.49
2023-02-27T07:30:49.799Z,246.68
2023-02-27T07:31:49.759Z,246.52
2023-02-27T07:32:49.788Z,246.24
2023-02-27T07:34:49.683Z,240.01
2023-02-27T07:35:49.741Z,234.07
2023-02-27T07:36:49.618Z,232.25
2023-02-27T07:37:49.586Z,229.25
2023-02-27T07:38:49.586Z,222.09
2023-02-27T07:39:49.516Z,221.39
2023-02-27T07:40:49.496Z,217.47
2023-02-27T07:41:49.463Z,213.02
2023-02-27T07:42:50.691Z,205.49
2023-02-27T07:43:49.638Z,206.30
2023-02-27T07:44:49.616Z,202.06
2023-02-27T07:45:49.576Z,197.71
2023-02-27T07:46:49.618Z,191.34
2023-02-27T07:47:49.517Z,192.24
2023-02-27T07:48:49.477Z,184.41
2023-02-27T07:49:49.491Z,173.88
2023-02-27T07:50:49.410Z,179.55
2023-02-27T07:51:49.370Z,177.46
2023-02-27T07:52:49.337Z,186.81
2023-02-27T07:53:49.313Z,192.68
2023-02-27T07:54:49.289Z,177.37
2023-02-27T07:55:49.318Z,174.91
2023-02-27T07:56:49.240Z,179.79
2023-02-27T07:57:49.214Z,181.25
2023-02-27T07:58:49.251Z,193.57
2023-02-27T07:59:49.079Z,188.65
2023-02-27T08:00:49.084Z,178.93
2023-02-27T08:01:49.011Z,182.20
2023-02-27T08:02:49.168Z,184.63
2023-02-27T08:03:48.936Z,188.71
2023-02-27T08:04:48.926Z,204.49
2023-02-27T08:05:48.846Z,200.25
2023-02-27T08:06:48.827Z,188.35
2023-02-27T08:07:48.793Z,193.63
2023-02-27T08:08:48.729Z,193.17
2023-02-27T08:09:48.685Z,193.60
2023-02-27T08:10:48.656Z,196.29
2023-02-27T08:11:49.320Z,197.56
2023-02-27T08:12:48.577Z,197.68
2023-02-27T08:13:59.952Z,202.43
2023-02-27T08:15:48.474Z,196.50
2023-02-27T08:16:48.426Z,203.04
2023-02-27T08:17:48.380Z,207.18
2023-02-27T08:18:48.346Z,211.41
2023-02-27T08:19:48.313Z,211.72
2023-02-27T08:20:48.258Z,217.72
2023-02-27T08:21:48.229Z,224.94
2023-02-27T08:22:48.192Z,224.43
2023-02-27T08:23:48.139Z,218.69
2023-02-27T08:24:48.114Z,210.18
2023-02-27T08:25:48.063Z,210.54
2023-02-27T08:26:48.053Z,212.96
2023-02-27T08:27:47.994Z,224.00
2023-02-27T08:28:47.961Z,220.91
2023-02-27T08:29:47.926Z,214.92
2023-02-27T08:31:47.957Z,206.42
2023-02-27T08:32:47.817Z,209.46
2023-02-27T08:33:49.598Z,223.05
2023-02-27T08:35:47.724Z,214.57
2023-02-27T08:36:47.686Z,207.70
2023-02-27T08:37:47.610Z,207.74
2023-02-27T08:38:47.565Z,192.94
2023-02-27T08:39:47.528Z,183.51
2023-02-27T08:40:47.494Z,164.64
2023-02-27T08:41:47.443Z,105.30
2023-02-27T08:42:47.563Z,37.44
2023-02-27T08:43:47.405Z,0.00
2023-02-27T08:44:47.387Z,0.00
2023-02-27T08:45:47.536Z,0.00
2023-02-27T08:46:47.477Z,0.00
2023-02-27T08:47:47.502Z,0.00
2023-02-27T08:48:47.451Z,0.00
2023-02-27T08:49:47.578Z,0.00
2023-02-27T08:50:47.444Z,0.00
2023-02-27T08:51:47.565Z,0.00
2023-02-27T08:52:47.636Z,0.00
2023-02-27T08:53:47.614Z,0.00
2023-02-27T09:46:48.527Z,184.76
2023-02-27T09:47:48.516Z,184.71
2023-02-27T09:48:48.481Z,184.43
2023-02-27T09:49:48.512Z,185.45
2023-02-27T09:50:48.467Z,185.32
2023-02-27T09:51:48.427Z,185.38
2023-02-27T09:52:48.449Z,185.68
2023-02-27T09:53:48.415Z,186.46
2023-02-27T09:54:48.366Z,187.84
2023-02-27T09:55:48.355Z,190.93
2023-02-27T09:56:48.320Z,191.66
2023-02-27T09:57:48.305Z,192.31
2023-02-27T09:58:48.289Z,194.45
2023-02-27T09:59:48.273Z,195.03
2023-02-27T10:00:48.275Z,195.49
2023-02-27T10:01:48.237Z,195.85
2023-02-27T10:02:48.196Z,195.53
2023-02-27T10:03:48.182Z,195.30
2023-02-27T10:04:48.162Z,195.34
2023-02-27T10:05:48.262Z,194.55
2023-02-27T10:06:48.133Z,195.37
2023-02-27T10:07:48.111Z,194.93
2023-02-27T10:08:48.078Z,194.67
2023-02-27T10:09:48.069Z,195.44
2023-02-27T10:10:48.042Z,195.59
2023-02-27T10:11:48.022Z,195.67
2023-02-27T10:12:47.991Z,195.03
2023-02-27T10:13:47.998Z,195.98
2023-02-27T10:14:47.966Z,196.63
2023-02-27T10:15:47.939Z,195.27
2023-02-27T10:16:47.951Z,194.93
2023-02-27T10:17:47.916Z,195.30
2023-02-27T10:18:47.881Z,196.83
2023-02-27T10:19:47.836Z,197.49
2023-02-27T10:20:47.816Z,198.60
2023-02-27T10:21:47.807Z,198.65
2023-02-27T10:22:47.754Z,198.65
2023-02-27T10:23:47.741Z,199.11
2023-02-27T10:24:47.711Z,197.91
2023-02-27T10:25:47.688Z,198.45
2023-02-27T10:26:47.670Z,200.12
2023-02-27T10:27:47.639Z,199.77
2023-02-27T10:28:47.636Z,199.75
2023-02-27T10:29:47.596Z,200.04
2023-02-27T10:30:47.623Z,200.33
2023-02-27T10:31:47.582Z,199.96
2023-02-27T10:32:47.515Z,200.85
2023-02-27T10:33:47.501Z,200.58
2023-02-27T10:34:47.478Z,199.82
2023-02-27T10:35:47.469Z,199.78
2023-02-27T10:36:47.440Z,200.12
2023-02-27T10:37:47.386Z,200.46
2023-02-27T10:38:47.357Z,200.49
2023-02-27T10:39:47.322Z,200.22
2023-02-27T10:40:47.290Z,199.07
2023-02-27T10:41:47.274Z,198.63
2023-02-27T10:42:47.237Z,199.22
2023-02-27T10:43:47.250Z,198.38
2023-02-27T10:44:47.179Z,199.04
2023-02-27T10:45:47.156Z,197.27
2023-02-27T10:46:47.124Z,197.29
2023-02-27T10:47:47.069Z,195.38
2023-02-27T10:48:47.037Z,195.27
2023-02-27T10:49:47.042Z,196.46
2023-02-27T10:50:46.977Z,197.11
2023-02-27T10:51:46.964Z,199.33
2023-02-27T10:52:46.910Z,202.56
2023-02-27T10:53:46.861Z,205.73
2023-02-27T10:54:46.809Z,208.71
2023-02-27T10:55:46.778Z,211.59
2023-02-27T10:56:46.748Z,213.85
2023-02-27T10:57:46.698Z,215.22
2023-02-27T10:58:46.647Z,217.49
2023-02-27T10:59:46.605Z,221.83
2023-02-27T11:00:46.598Z,223.73
2023-02-27T11:01:46.560Z,216.47
2023-02-27T11:02:46.547Z,203.96
2023-02-27T11:03:46.465Z,205.11
2023-02-27T11:04:46.486Z,210.03
2023-02-27T11:05:46.405Z,208.76
2023-02-27T11:06:46.466Z,203.78
2023-02-27T11:07:46.336Z,206.21
2023-02-27T11:08:46.405Z,207.47
2023-02-27T11:09:46.262Z,207.13
2023-02-27T11:10:46.240Z,208.77
2023-02-27T11:11:46.235Z,206.41
2023-02-27T11:12:46.222Z,208.87
2023-02-27T11:13:46.103Z,212.52
2023-02-27T11:14:46.051Z,214.35
2023-02-27T11:15:46.021Z,216.62
2023-02-27T11:16:45.948Z,219.89
2023-02-27T11:17:45.904Z,217.87
2023-02-27T11:18:45.871Z,220.60
2023-02-27T11:19:45.825Z,221.14
2023-02-27T11:20:45.845Z,222.32
2023-02-27T11:21:45.758Z,223.25
2023-02-27T11:57:45.919Z,214.97
2023-02-27T13:20:40.619Z,191.82
2023-02-27T13:21:40.570Z,192.60
2023-02-27T13:22:40.556Z,192.37
2023-02-27T13:23:40.507Z,194.01
2023-02-27T13:24:40.461Z,194.08
2023-02-27T13:25:40.444Z,194.22
2023-02-27T13:26:40.388Z,194.58
2023-02-27T13:27:40.351Z,194.93
2023-02-27T13:28:40.338Z,195.87
2023-02-27T13:29:40.292Z,197.02
2023-02-27T13:30:40.241Z,196.92
2023-02-27T13:31:40.319Z,196.95
2023-02-27T13:32:44.084Z,196.91
2023-02-27T13:33:40.115Z,196.94
2023-02-27T13:34:40.083Z,197.08
2023-02-27T13:35:40.088Z,196.97
2023-02-27T13:36:40.021Z,195.36
2023-02-27T13:37:39.979Z,194.67
2023-02-27T13:38:39.937Z,196.72
2023-02-27T13:39:39.902Z,195.82
2023-02-27T13:40:39.869Z,195.53
2023-02-27T13:41:39.847Z,196.04
2023-02-27T13:42:39.784Z,195.05
2023-02-27T13:43:51.441Z,193.63
2023-02-27T13:45:39.704Z,193.66
2023-02-27T13:46:39.752Z,193.87
2023-02-27T13:47:39.618Z,194.45
2023-02-27T13:48:39.579Z,194.98
2023-02-27T13:49:39.518Z,193.62
2023-02-27T13:50:39.488Z,195.72
2023-02-27T13:51:39.439Z,195.84
2023-02-27T13:52:39.409Z,195.51
2023-02-27T13:53:39.371Z,195.50
2023-02-27T13:54:39.348Z,194.83
2023-02-27T13:55:39.294Z,194.42
2023-02-27T13:56:39.251Z,195.92
2023-02-27T13:57:39.215Z,197.91
2023-02-27T13:58:39.178Z,195.76
2023-02-27T13:59:39.144Z,196.35
2023-02-27T14:00:39.091Z,197.55
2023-02-27T14:01:39.150Z,196.82
2023-02-27T14:02:46.560Z,196.57
2023-02-27T14:03:39.982Z,196.58
2023-02-27T14:04:38.947Z,195.97
2023-02-27T14:05:38.905Z,196.95
2023-02-27T14:06:38.881Z,196.45
2023-02-27T14:07:38.848Z,195.51
2023-02-27T14:08:38.804Z,194.27
2023-02-27T14:09:38.767Z,196.38
2023-02-27T14:10:38.721Z,195.46
2023-02-27T14:11:38.689Z,195.17
2023-02-27T14:12:45.348Z,197.08
2023-02-27T14:13:39.646Z,197.14
2023-02-27T14:14:38.609Z,197.09
2023-02-27T14:15:38.568Z,197.35
2023-02-27T14:16:38.556Z,197.16
2023-02-27T14:17:38.503Z,197.44
2023-02-27T14:18:38.478Z,197.73
2023-02-27T14:19:38.441Z,197.93
2023-02-27T14:20:38.412Z,198.17
2023-02-27T14:21:38.398Z,197.79
2023-02-27T14:22:38.359Z,197.32
2023-02-27T14:23:38.327Z,197.19
2023-02-27T14:24:38.307Z,196.11
2023-02-27T14:25:38.242Z,196.07
2023-02-27T14:26:38.238Z,197.62
2023-02-27T14:27:38.173Z,196.88
2023-02-27T14:28:38.144Z,197.22
2023-02-27T14:29:38.112Z,196.19
2023-02-27T14:30:38.077Z,197.49
2023-02-27T14:31:38.127Z,197.44
2023-02-27T14:32:38.021Z,196.97
2023-02-27T14:33:40.754Z,196.87
2023-02-27T14:34:37.941Z,197.82
2023-02-27T14:35:37.980Z,198.65
2023-02-27T14:36:37.888Z,199.26
2023-02-27T14:37:37.860Z,197.85
2023-02-27T14:38:37.821Z,197.86
2023-02-27T14:39:37.780Z,197.62
2023-02-27T14:40:37.760Z,197.75
2023-02-27T14:41:37.721Z,198.75
2023-02-27T14:42:37.737Z,198.38
2023-02-27T14:43:37.648Z,197.76
2023-02-27T14:44:37.625Z,197.80
2023-02-27T14:45:37.613Z,197.71
2023-02-27T14:46:37.689Z,196.75
2023-02-27T14:47:37.546Z,197.82
2023-02-27T14:48:37.517Z,197.96
2023-02-27T14:49:37.483Z,198.19
2023-02-27T14:50:37.462Z,197.69
2023-02-27T14:51:37.428Z,195.80
2023-02-27T14:52:37.386Z,196.75
2023-02-27T14:53:37.384Z,197.66
2023-02-27T14:54:37.320Z,196.77
2023-02-27T14:55:37.296Z,198.10
2023-02-27T14:56:37.261Z,197.50
2023-02-27T14:57:37.236Z,196.33
2023-02-27T14:58:37.193Z,196.84
2023-02-27T14:59:37.161Z,196.24
2023-02-27T15:00:37.131Z,197.77
2023-02-27T15:01:37.180Z,197.04
2023-02-27T15:02:37.063Z,196.91
2023-02-27T15:03:37.057Z,194.38
2023-02-27T15:04:37.023Z,195.61
2023-02-27T15:05:36.954Z,195.94
2023-02-27T15:06:36.903Z,194.49
2023-02-27T15:07:36.878Z,195.68
2023-02-27T15:08:36.852Z,195.78
2023-02-27T15:09:36.804Z,195.86
2023-02-27T15:10:36.773Z,196.00
2023-02-27T15:11:36.740Z,195.78
2023-02-27T15:12:36.740Z,197.14
2023-02-27T15:13:36.687Z,194.51
2023-02-27T15:14:36.782Z,193.14
2023-02-27T15:15:36.642Z,195.39
2023-02-27T15:16:36.836Z,195.25
2023-02-27T15:17:36.551Z,196.09
2023-02-27T15:18:36.511Z,195.39
2023-02-27T15:19:36.482Z,195.32
2023-02-27T15:20:36.446Z,196.21
2023-02-27T15:21:36.414Z,195.39
2023-02-27T15:22:39.371Z,197.20
2023-02-27T15:23:36.356Z,198.45
2023-02-27T15:24:49.251Z,198.36
2023-02-27T15:25:37.312Z,198.40
2023-02-27T15:26:36.255Z,198.58
2023-02-27T15:27:36.223Z,198.84
2023-02-27T15:28:36.203Z,197.83
2023-02-27T15:29:36.229Z,196.87
2023-02-27T15:30:36.152Z,198.18
2023-02-27T15:31:36.168Z,197.63
2023-02-27T15:32:36.090Z,196.54
2023-02-27T15:33:36.050Z,196.56
2023-02-27T15:34:36.033Z,196.28
2023-02-27T15:35:36.025Z,197.47
2023-02-27T15:36:35.947Z,196.78
2023-02-27T15:37:35.944Z,198.79
2023-02-27T15:38:35.871Z,197.95
2023-02-27T15:39:35.840Z,197.50
2023-02-27T15:40:35.795Z,198.66
2023-02-27T15:41:35.762Z,198.32
2023-02-27T15:42:35.731Z,199.91
2023-02-27T16:30:34.256Z,198.79
2023-02-27T16:31:34.301Z,199.41
2023-02-27T19:22:30.080Z,198.01
2023-02-27T21:52:27.097Z,193.79
2023-02-27T22:22:26.671Z,193.96
2023-02-27T22:23:26.650Z,193.66
2023-02-27T22:24:26.626Z,193.89
2023-02-27T22:25:26.610Z,193.04
2023-02-27T22:26:26.606Z,192.53
2023-02-27T22:27:26.561Z,193.18
2023-02-27T22:28:26.541Z,192.84
2023-02-27T22:29:26.538Z,194.33
2023-02-27T22:30:26.510Z,193.43
2023-02-27T22:31:26.677Z,192.54
2023-02-27T22:32:26.515Z,192.56
2023-02-27T22:33:26.459Z,192.74
2023-02-27T22:34:26.436Z,193.55
2023-02-27T22:35:26.450Z,193.86
2023-02-27T22:36:26.408Z,194.91
2023-02-27T22:37:26.390Z,192.65
2023-02-27T22:38:26.432Z,193.63
2023-02-27T22:39:26.364Z,192.52
2023-02-27T22:40:26.353Z,192.93
2023-02-27T22:41:26.557Z,193.40
2023-02-27T22:42:26.312Z,190.71
2023-02-27T22:43:26.290Z,193.39
2023-02-27T22:44:26.272Z,194.56
2023-02-27T22:45:26.270Z,193.00
2023-02-27T22:46:26.257Z,191.48
2023-02-27T22:47:26.211Z,193.68
2023-02-27T22:48:26.197Z,194.67
2023-02-27T22:49:26.174Z,193.42
2023-02-27T22:50:26.163Z,194.37
2023-02-27T22:51:26.384Z,193.96
2023-02-27T22:52:26.128Z,193.84
2023-02-27T22:53:26.108Z,192.72
2023-02-27T22:54:26.091Z,191.54
2023-02-27T22:55:26.070Z,192.42
2023-02-27T22:56:26.079Z,193.23
2023-02-27T22:57:26.026Z,192.76
2023-02-27T22:58:26.009Z,192.76
2023-02-27T22:59:25.987Z,192.02
2023-02-27T23:00:25.970Z,192.75
2023-02-27T23:01:26.092Z,193.12
2023-02-27T23:02:25.920Z,192.67
2023-02-27T23:03:25.910Z,193.22
2023-02-27T23:04:25.879Z,194.63
2023-02-27T23:05:25.857Z,194.03
2023-02-27T23:06:25.848Z,193.28
2023-02-27T23:07:25.828Z,191.72
2023-02-27T23:08:25.815Z,192.81
2023-02-27T23:09:25.787Z,192.54
2023-02-27T23:10:25.782Z,193.75
2023-02-27T23:11:25.781Z,193.43
2023-02-27T23:12:27.427Z,192.60
2023-02-27T23:13:25.741Z,193.78
2023-02-27T23:14:25.719Z,194.04
